Sunday, January 20, 2019, 2:47 AM EST
Back to Local

KSMQ, Somerville Somerset Airport

Location: Bedminster, NJ, United States Lat: 40.617
Local Time: 2:47 AM EST ( 7:47 GMT) Lon: -74.667
Time Zone: US/Eastern Elev: 104 ft

Show me the last for .
Show Decoded

2019-01-20 02:32 METAR KSMQ 200732Z AUTO 00000KT 4SM RA BR BKN010 BKN028 OVC050 02/01 A2964 RMK
                 AO2 PRESFR P0012 T00170006 =
2019-01-20 01:53 METAR KSMQ 200653Z AUTO VRB05G17KT 5SM RA BR SCT012 SCT019 OVC060 02/01 A2970
                 RMK AO2 SLP058 P0023 T00170006 =
2019-01-20 00:53 METAR KSMQ 200553Z AUTO 04007KT 3SM RA BR BKN012 OVC016 01/01 A2974 RMK AO2
                 SLP074 P0021 60080 T00110006 10022 20006 56043 =
2019-01-19 23:53 METAR KSMQ 200453Z AUTO VRB04KT 3SM RA BR OVC012 02/01 A2979 RMK AO2 SLP089
                 P0021 T00170006 400281044 =
2019-01-19 22:53 METAR KSMQ 200353Z AUTO 06006KT 4SM RA BR OVC011 01/01 A2982 RMK AO2
                 RAB0256SNE0256 SLP101 P0014 T00110006 =
2019-01-19 22:03 METAR KSMQ 200303Z AUTO 05004KT 3SM RA BR OVC010 01/00 A2987 RMK AO2
                 RAB0256SNE0256 P0002 T00110000 =
2019-01-19 21:53 METAR KSMQ 200253Z AUTO 04004KT 2SM -SN BR OVC010 01/00 A2987 RMK AO2 SLP118
                 P0012 60024 T00110000 58044 =
2019-01-19 21:40 METAR KSMQ 200240Z AUTO 04004KT 1 3/4SM -SN BR OVC010 01/00 A2988 RMK AO2 CIG
                 006V013 PRESFR P0009 T00060000 =
2019-01-19 21:31 METAR KSMQ 200231Z AUTO 07003KT 2SM -SN BR OVC008 01/00 A2989 RMK AO2 P0006
                 T00060000 =
2019-01-19 20:53 METAR KSMQ 200153Z AUTO 09003KT 1 1/4SM -SN BR OVC008 01/00 A2992 RMK AO2 SLP135
                 P0007 T00060000 =
2019-01-19 20:05 METAR KSMQ 200105Z AUTO 03004KT 1SM -SN BR OVC009 01/00 A2999 RMK AO2 P0001
                 T00060000 =
2019-01-19 19:53 METAR KSMQ 200053Z AUTO 00000KT 3/4SM -SN BR BKN010 OVC015 01/00 A3000 RMK AO2
                 SNB01 SLP161 P0005 T00060000 =
2019-01-19 19:33 METAR KSMQ 200033Z AUTO 00000KT 1 1/4SM -SN BR BKN014 OVC020 01/00 A3000 RMK AO2
                 SNB01 P0002 T00110000 =
2019-01-19 19:23 METAR KSMQ 200023Z AUTO VRB04KT 1 3/4SM -SN BR BKN017 OVC022 02/M01 A3000 RMK
                 AO2 SNB01 P0001 T00171006 =
2019-01-19 18:53 METAR KSMQ 192353Z AUTO 08005KT 9SM OVC024 02/M01 A3001 RMK AO2 SLP163 T00221011
                 10028 20017 58036 =
2019-01-19 17:53 METAR KSMQ 192253Z AUTO 08004KT 10SM BKN022 BKN027 OVC033 02/M02 A3007 RMK AO2
                 SLP184 T00221022 =
2019-01-19 17:08 METAR KSMQ 192208Z AUTO 07004KT 10SM SCT025 OVC045 02/M03 A3008 RMK AO2
                 T00221028 =
2019-01-19 16:53 METAR KSMQ 192153Z AUTO 00000KT 10SM BKN025 OVC045 02/M03 A3010 RMK AO2 SLP194
                 T00221028 =
2019-01-19 16:43 METAR KSMQ 192143Z AUTO 00000KT 10SM BKN025 BKN034 OVC045 02/M03 A3010 RMK AO2
                 T00221028 =
2019-01-19 16:18 METAR KSMQ 192118Z AUTO 12004KT 10SM SCT028 BKN036 OVC045 02/M03 A3009 RMK AO2
                 T00221028 =
2019-01-19 15:53 METAR KSMQ 192053Z AUTO 10005KT 10SM BKN027 OVC034 02/M03 A3011 RMK AO2 SLP199
                 T00221028 56022 =
2019-01-19 15:27 METAR KSMQ 192027Z AUTO 10006KT 10SM BKN027 OVC046 02/M03 A3012 RMK AO2
                 T00221028 =
2019-01-19 14:53 METAR KSMQ 191953Z AUTO 13004KT 10SM FEW028 BKN045 OVC055 02/M03 A3013 RMK AO2
                 SLP206 T00221028 =
2019-01-19 13:53 METAR KSMQ 191853Z AUTO VRB06KT 10SM SCT046 OVC060 03/M04 A3012 RMK AO2 SLP202
                 T00281044 =
2019-01-19 12:53 METAR KSMQ 191753Z AUTO 09003KT 10SM OVC048 02/M05 A3018 RMK AO2 SLP221
                 T00221050 10022 21044 58020 =
2019-01-19 11:53 METAR KSMQ 191653Z AUTO 08004KT 10SM OVC050 02/M05 A3022 RMK AO2 SLP235
                 T00171050 =
2019-01-19 10:53 METAR KSMQ 191553Z AUTO 03003KT 10SM OVC050 02/M06 A3025 RMK AO2 SLP246
                 T00171056 =
2019-01-19 09:53 METAR KSMQ 191453Z AUTO VRB04KT 10SM OVC049 01/M05 A3024 RMK AO2 SLP242
                 T00111050 51016 =
2019-01-19 08:53 METAR KSMQ 191353Z AUTO 00000KT 8SM OVC050 M01/M03 A3023 RMK AO2 SLP241
                 T10111033 =
2019-01-19 07:53 METAR KSMQ 191253Z AUTO 00000KT 4SM BR BKN046 M03/M04 A3021 RMK AO2 SLP234
                 T10331039 =
2019-01-19 06:53 METAR KSMQ 191153Z AUTO 33003KT 6SM BR BKN046 M03/M05 A3019 RMK AO2 SLP226 I6000
                 T10331050 11011 21039 50000 =
2019-01-19 05:53 METAR KSMQ 191053Z AUTO 00000KT 5SM BR OVC047 M03/M04 A3021 RMK AO2 SLP234
                 T10331044 =
2019-01-19 04:53 METAR KSMQ 190953Z AUTO 31003KT 5SM BR OVC047 M03/M04 A3020 RMK AO2 SLP229 I1000
                 T10331044 =
2019-01-19 03:53 METAR KSMQ 190853Z AUTO 00000KT 3SM BR FEW004 OVC049 M03/M04 A3019 RMK AO2
                 SLP225 I1000 I3000 T10331044 58002 =
2019-01-19 03:51 METAR KSMQ 190851Z AUTO 00000KT 3SM BR FEW004 OVC049 M03/M04 A3019 RMK AO2 I1000
                 =
2019-01-19 03:38 METAR KSMQ 190838Z AUTO 00000KT 2 1/2SM BR FEW003 BKN049 M03/M04 A3019 RMK AO2
                 I1000 T10331044 =
2019-01-19 03:29 METAR KSMQ 190829Z AUTO 00000KT 1 3/4SM BR FEW003 BKN049 M03/M04 A3020 RMK AO2
                 I1000 T10331039 =
2019-01-19 02:53 METAR KSMQ 190753Z AUTO 00000KT 2 1/2SM BR BKN048 M02/M03 A3021 RMK AO2 SLP231
                 I1000 T10221028 =

Support USWX by starting your Amazon purchase here.